sensor_id;sensor_type;location;lat;lon;timestamp;temperature;humidity
15916;DHT22;8057;47.830;-3.870;2022-10-22T00:02:44;16.00;99.90
15916;DHT22;8057;47.830;-3.870;2022-10-22T00:06:53;15.90;99.90
15916;DHT22;8057;47.830;-3.870;2022-10-22T00:11:11;15.90;99.90
15916;DHT22;8057;47.830;-3.870;2022-10-22T00:15:20;16.00;99.90
15916;DHT22;8057;47.830;-3.870;2022-10-22T00:19:29;16.00;99.90
15916;DHT22;8057;47.830;-3.870;2022-10-22T00:23:40;16.00;99.90
15916;DHT22;8057;47.830;-3.870;2022-10-22T00:27:51;16.00;99.90
15916;DHT22;8057;47.830;-3.870;2022-10-22T00:32:00;15.90;99.90
15916;DHT22;8057;47.830;-3.870;2022-10-22T00:36:09;15.90;99.90
15916;DHT22;8057;47.830;-3.870;2022-10-22T00:40:19;15.90;99.90
15916;DHT22;8057;47.830;-3.870;2022-10-22T00:45:06;15.90;99.90
15916;DHT22;8057;47.830;-3.870;2022-10-22T00:49:16;15.80;99.90
15916;DHT22;8057;47.830;-3.870;2022-10-22T00:53:29;15.80;99.90
15916;DHT22;8057;47.830;-3.870;2022-10-22T00:57:39;15.80;99.90
15916;DHT22;8057;47.830;-3.870;2022-10-22T01:01:50;15.80;99.90
15916;DHT22;8057;47.830;-3.870;2022-10-22T01:06:03;15.80;99.90
15916;DHT22;8057;47.830;-3.870;2022-10-22T01:10:27;15.80;99.90
15916;DHT22;8057;47.830;-3.870;2022-10-22T01:14:49;15.70;99.90
15916;DHT22;8057;47.830;-3.870;2022-10-22T01:19:13;15.70;99.90
15916;DHT22;8057;47.830;-3.870;2022-10-22T01:23:47;15.70;99.90
15916;DHT22;8057;47.830;-3.870;2022-10-22T01:28:06;15.70;99.90
15916;DHT22;8057;47.830;-3.870;2022-10-22T01:32:22;15.60;99.90
15916;DHT22;8057;47.830;-3.870;2022-10-22T01:36:32;15.60;99.90
15916;DHT22;8057;47.830;-3.870;2022-10-22T01:40:44;15.60;99.90
15916;DHT22;8057;47.830;-3.870;2022-10-22T01:44:54;15.60;99.90
15916;DHT22;8057;47.830;-3.870;2022-10-22T01:49:13;15.60;99.90
15916;DHT22;8057;47.830;-3.870;2022-10-22T01:53:31;15.70;99.90
15916;DHT22;8057;47.830;-3.870;2022-10-22T01:57:54;15.70;99.90
15916;DHT22;8057;47.830;-3.870;2022-10-22T02:02:09;15.70;99.90
15916;DHT22;8057;47.830;-3.870;2022-10-22T02:06:24;15.70;99.90
15916;DHT22;8057;47.830;-3.870;2022-10-22T02:10:36;15.80;99.90
15916;DHT22;8057;47.830;-3.870;2022-10-22T02:14:47;15.80;99.90
15916;DHT22;8057;47.830;-3.870;2022-10-22T02:19:01;15.80;99.90
15916;DHT22;8057;47.830;-3.870;2022-10-22T02:23:13;15.80;99.90
15916;DHT22;8057;47.830;-3.870;2022-10-22T02:27:28;15.80;99.90
15916;DHT22;8057;47.830;-3.870;2022-10-22T02:31:42;15.80;99.90
15916;DHT22;8057;47.830;-3.870;2022-10-22T02:35:53;15.70;99.90
15916;DHT22;8057;47.830;-3.870;2022-10-22T02:40:06;15.70;99.90
15916;DHT22;8057;47.830;-3.870;2022-10-22T02:44:19;15.70;99.90
15916;DHT22;8057;47.830;-3.870;2022-10-22T02:48:29;15.70;99.90
15916;DHT22;8057;47.830;-3.870;2022-10-22T02:52:39;15.80;99.90
15916;DHT22;8057;47.830;-3.870;2022-10-22T02:56:50;15.90;99.90
15916;DHT22;8057;47.830;-3.870;2022-10-22T03:00:59;16.10;99.90
15916;DHT22;8057;47.830;-3.870;2022-10-22T03:05:09;16.00;99.90
15916;DHT22;8057;47.830;-3.870;2022-10-22T03:09:18;16.00;99.90
15916;DHT22;8057;47.830;-3.870;2022-10-22T03:13:32;16.10;99.90
15916;DHT22;8057;47.830;-3.870;2022-10-22T03:17:42;16.10;99.90
15916;DHT22;8057;47.830;-3.870;2022-10-22T03:21:54;16.20;99.90
15916;DHT22;8057;47.830;-3.870;2022-10-22T03:26:04;16.10;99.90
15916;DHT22;8057;47.830;-3.870;2022-10-22T03:30:16;16.00;99.90
15916;DHT22;8057;47.830;-3.870;2022-10-22T03:34:25;16.00;99.90
15916;DHT22;8057;47.830;-3.870;2022-10-22T03:38:35;15.90;99.90
15916;DHT22;8057;47.830;-3.870;2022-10-22T03:42:45;16.00;99.90
15916;DHT22;8057;47.830;-3.870;2022-10-22T03:46:56;16.00;99.90
15916;DHT22;8057;47.830;-3.870;2022-10-22T03:51:08;16.00;99.90
15916;DHT22;8057;47.830;-3.870;2022-10-22T03:55:18;16.00;99.90
15916;DHT22;8057;47.830;-3.870;2022-10-22T03:59:27;16.10;99.90
15916;DHT22;8057;47.830;-3.870;2022-10-22T04:03:38;16.10;99.90
15916;DHT22;8057;47.830;-3.870;2022-10-22T04:07:48;16.00;99.90
15916;DHT22;8057;47.830;-3.870;2022-10-22T04:11:57;16.00;99.90
15916;DHT22;8057;47.830;-3.870;2022-10-22T04:16:07;16.00;99.90
15916;DHT22;8057;47.830;-3.870;2022-10-22T04:20:19;16.10;99.90
15916;DHT22;8057;47.830;-3.870;2022-10-22T04:24:29;16.30;99.90
15916;DHT22;8057;47.830;-3.870;2022-10-22T04:28:39;16.30;99.90
15916;DHT22;8057;47.830;-3.870;2022-10-22T04:32:51;16.30;99.90
15916;DHT22;8057;47.830;-3.870;2022-10-22T04:37:11;16.20;99.90
15916;DHT22;8057;47.830;-3.870;2022-10-22T04:41:24;16.20;99.90
15916;DHT22;8057;47.830;-3.870;2022-10-22T04:45:34;16.10;99.90
15916;DHT22;8057;47.830;-3.870;2022-10-22T04:49:44;16.10;99.90
15916;DHT22;8057;47.830;-3.870;2022-10-22T04:53:55;16.00;99.90
15916;DHT22;8057;47.830;-3.870;2022-10-22T04:58:04;16.00;99.90
15916;DHT22;8057;47.830;-3.870;2022-10-22T05:02:14;15.90;99.90
15916;DHT22;8057;47.830;-3.870;2022-10-22T05:06:24;16.00;99.90
15916;DHT22;8057;47.830;-3.870;2022-10-22T05:10:35;16.00;99.90
15916;DHT22;8057;47.830;-3.870;2022-10-22T05:14:44;16.00;99.90
15916;DHT22;8057;47.830;-3.870;2022-10-22T05:18:54;16.00;99.90
15916;DHT22;8057;47.830;-3.870;2022-10-22T05:23:03;16.10;99.90
15916;DHT22;8057;47.830;-3.870;2022-10-22T05:27:14;16.20;99.90
15916;DHT22;8057;47.830;-3.870;2022-10-22T05:31:25;16.20;99.90
15916;DHT22;8057;47.830;-3.870;2022-10-22T05:35:36;16.20;99.90
15916;DHT22;8057;47.830;-3.870;2022-10-22T05:39:45;16.20;99.90
15916;DHT22;8057;47.830;-3.870;2022-10-22T05:44:17;16.20;99.90
15916;DHT22;8057;47.830;-3.870;2022-10-22T05:48:28;16.20;99.90
15916;DHT22;8057;47.830;-3.870;2022-10-22T05:52:39;16.20;99.90
15916;DHT22;8057;47.830;-3.870;2022-10-22T05:56:49;16.20;99.90
15916;DHT22;8057;47.830;-3.870;2022-10-22T06:01:04;16.20;99.90
15916;DHT22;8057;47.830;-3.870;2022-10-22T06:05:14;16.10;99.90
15916;DHT22;8057;47.830;-3.870;2022-10-22T06:09:26;16.00;99.90
15916;DHT22;8057;47.830;-3.870;2022-10-22T06:13:36;16.00;99.90
15916;DHT22;8057;47.830;-3.870;2022-10-22T06:17:47;16.00;99.90
15916;DHT22;8057;47.830;-3.870;2022-10-22T06:21:57;16.00;99.90
15916;DHT22;8057;47.830;-3.870;2022-10-22T06:26:07;16.00;99.90
15916;DHT22;8057;47.830;-3.870;2022-10-22T06:30:16;16.10;99.90
15916;DHT22;8057;47.830;-3.870;2022-10-22T06:34:27;16.10;99.90
15916;DHT22;8057;47.830;-3.870;2022-10-22T06:38:38;16.20;99.90
15916;DHT22;8057;47.830;-3.870;2022-10-22T06:42:47;16.20;99.90
15916;DHT22;8057;47.830;-3.870;2022-10-22T06:46:56;16.20;99.90
15916;DHT22;8057;47.830;-3.870;2022-10-22T06:51:09;16.10;99.90
15916;DHT22;8057;47.830;-3.870;2022-10-22T06:55:19;16.20;99.90
15916;DHT22;8057;47.830;-3.870;2022-10-22T06:59:30;16.10;99.90
15916;DHT22;8057;47.830;-3.870;2022-10-22T07:03:39;16.10;99.90
15916;DHT22;8057;47.830;-3.870;2022-10-22T07:07:50;16.10;99.90
15916;DHT22;8057;47.830;-3.870;2022-10-22T07:12:00;16.10;99.90
15916;DHT22;8057;47.830;-3.870;2022-10-22T07:16:13;16.10;99.90
15916;DHT22;8057;47.830;-3.870;2022-10-22T07:20:23;16.20;99.90
15916;DHT22;8057;47.830;-3.870;2022-10-22T07:24:34;16.20;99.90
15916;DHT22;8057;47.830;-3.870;2022-10-22T07:28:46;16.20;99.90
15916;DHT22;8057;47.830;-3.870;2022-10-22T07:32:56;16.20;99.90
15916;DHT22;8057;47.830;-3.870;2022-10-22T07:37:05;16.30;99.90
15916;DHT22;8057;47.830;-3.870;2022-10-22T07:41:16;16.40;99.90
15916;DHT22;8057;47.830;-3.870;2022-10-22T07:45:25;16.40;99.90
15916;DHT22;8057;47.830;-3.870;2022-10-22T07:49:36;16.40;99.90
15916;DHT22;8057;47.830;-3.870;2022-10-22T07:53:49;16.40;99.90
15916;DHT22;8057;47.830;-3.870;2022-10-22T07:58:02;16.50;99.90
15916;DHT22;8057;47.830;-3.870;2022-10-22T08:02:12;16.60;99.90
15916;DHT22;8057;47.830;-3.870;2022-10-22T08:06:22;16.70;99.90
15916;DHT22;8057;47.830;-3.870;2022-10-22T08:10:33;16.70;99.90
15916;DHT22;8057;47.830;-3.870;2022-10-22T08:14:44;16.80;99.90
15916;DHT22;8057;47.830;-3.870;2022-10-22T08:18:53;16.90;99.90
15916;DHT22;8057;47.830;-3.870;2022-10-22T08:23:12;16.90;99.90
15916;DHT22;8057;47.830;-3.870;2022-10-22T08:27:24;17.00;99.90
15916;DHT22;8057;47.830;-3.870;2022-10-22T08:31:35;17.00;99.90
15916;DHT22;8057;47.830;-3.870;2022-10-22T08:35:50;16.90;99.90
15916;DHT22;8057;47.830;-3.870;2022-10-22T08:40:00;17.00;99.90
15916;DHT22;8057;47.830;-3.870;2022-10-22T08:44:33;16.90;99.90
15916;DHT22;8057;47.830;-3.870;2022-10-22T08:48:48;17.00;99.90
15916;DHT22;8057;47.830;-3.870;2022-10-22T08:53:02;17.00;99.90
15916;DHT22;8057;47.830;-3.870;2022-10-22T08:57:32;17.00;99.90
15916;DHT22;8057;47.830;-3.870;2022-10-22T09:01:54;17.10;99.90
15916;DHT22;8057;47.830;-3.870;2022-10-22T09:06:14;17.10;99.90
15916;DHT22;8057;47.830;-3.870;2022-10-22T09:10:28;17.20;99.90
15916;DHT22;8057;47.830;-3.870;2022-10-22T09:14:57;17.20;99.90
15916;DHT22;8057;47.830;-3.870;2022-10-22T09:19:14;17.20;99.90
15916;DHT22;8057;47.830;-3.870;2022-10-22T09:23:31;17.10;99.90
15916;DHT22;8057;47.830;-3.870;2022-10-22T09:27:41;17.10;99.90
15916;DHT22;8057;47.830;-3.870;2022-10-22T09:31:50;17.10;99.90
15916;DHT22;8057;47.830;-3.870;2022-10-22T09:36:01;17.10;99.90
15916;DHT22;8057;47.830;-3.870;2022-10-22T09:40:16;17.10;99.90
15916;DHT22;8057;47.830;-3.870;2022-10-22T09:44:27;16.90;99.90
15916;DHT22;8057;47.830;-3.870;2022-10-22T09:48:41;16.90;99.90
15916;DHT22;8057;47.830;-3.870;2022-10-22T09:52:59;16.90;99.90
15916;DHT22;8057;47.830;-3.870;2022-10-22T09:57:15;17.00;99.90
15916;DHT22;8057;47.830;-3.870;2022-10-22T10:01:27;17.00;99.90
15916;DHT22;8057;47.830;-3.870;2022-10-22T10:05:40;17.00;99.90
15916;DHT22;8057;47.830;-3.870;2022-10-22T10:09:50;17.10;99.90
15916;DHT22;8057;47.830;-3.870;2022-10-22T10:14:07;17.30;99.90
15916;DHT22;8057;47.830;-3.870;2022-10-22T10:18:31;17.40;99.90
15916;DHT22;8057;47.830;-3.870;2022-10-22T10:22:54;17.50;99.90
15916;DHT22;8057;47.830;-3.870;2022-10-22T10:27:12;17.60;99.90
15916;DHT22;8057;47.830;-3.870;2022-10-22T10:32:06;17.70;99.90
15916;DHT22;8057;47.830;-3.870;2022-10-22T10:36:24;17.70;99.90
15916;DHT22;8057;47.830;-3.870;2022-10-22T10:40:46;17.80;99.90
15916;DHT22;8057;47.830;-3.870;2022-10-22T10:45:34;18.00;99.90
15916;DHT22;8057;47.830;-3.870;2022-10-22T10:49:53;18.30;99.90
15916;DHT22;8057;47.830;-3.870;2022-10-22T10:54:12;18.30;99.90
15916;DHT22;8057;47.830;-3.870;2022-10-22T10:58:30;18.30;99.90
15916;DHT22;8057;47.830;-3.870;2022-10-22T11:07:38;18.20;99.90
15916;DHT22;8057;47.830;-3.870;2022-10-22T11:11:54;18.10;99.90
15916;DHT22;8057;47.830;-3.870;2022-10-22T11:16:12;18.20;99.90
15916;DHT22;8057;47.830;-3.870;2022-10-22T11:20:31;18.20;99.90
15916;DHT22;8057;47.830;-3.870;2022-10-22T11:24:52;18.20;99.90
15916;DHT22;8057;47.830;-3.870;2022-10-22T11:29:06;18.30;99.90
15916;DHT22;8057;47.830;-3.870;2022-10-22T11:33:22;18.30;99.90
15916;DHT22;8057;47.830;-3.870;2022-10-22T11:37:39;18.40;99.90
15916;DHT22;8057;47.830;-3.870;2022-10-22T11:41:52;18.50;99.90
15916;DHT22;8057;47.830;-3.870;2022-10-22T11:46:08;18.70;99.90
15916;DHT22;8057;47.830;-3.870;2022-10-22T11:50:54;18.70;99.90
15916;DHT22;8057;47.830;-3.870;2022-10-22T11:55:31;18.90;99.90
15916;DHT22;8057;47.830;-3.870;2022-10-22T11:59:47;19.00;99.90
15916;DHT22;8057;47.830;-3.870;2022-10-22T12:04:17;18.90;99.90
15916;DHT22;8057;47.830;-3.870;2022-10-22T12:08:30;18.90;99.90
15916;DHT22;8057;47.830;-3.870;2022-10-22T12:12:55;18.80;99.90
15916;DHT22;8057;47.830;-3.870;2022-10-22T12:17:09;18.70;99.90
15916;DHT22;8057;47.830;-3.870;2022-10-22T12:21:21;18.80;99.90
15916;DHT22;8057;47.830;-3.870;2022-10-22T12:25:34;18.90;99.90
15916;DHT22;8057;47.830;-3.870;2022-10-22T12:29:47;18.70;99.90
15916;DHT22;8057;47.830;-3.870;2022-10-22T12:34:04;18.60;99.90
15916;DHT22;8057;47.830;-3.870;2022-10-22T12:38:16;18.60;99.90
15916;DHT22;8057;47.830;-3.870;2022-10-22T12:42:29;18.70;99.90
15916;DHT22;8057;47.830;-3.870;2022-10-22T12:46:44;18.80;99.90
15916;DHT22;8057;47.830;-3.870;2022-10-22T12:51:52;18.90;99.90
15916;DHT22;8057;47.830;-3.870;2022-10-22T12:56:09;18.80;99.90
15916;DHT22;8057;47.830;-3.870;2022-10-22T13:00:26;18.80;99.90
15916;DHT22;8057;47.830;-3.870;2022-10-22T13:05:12;18.80;99.90
15916;DHT22;8057;47.830;-3.870;2022-10-22T13:09:40;18.90;99.90
15916;DHT22;8057;47.830;-3.870;2022-10-22T13:14:02;18.80;99.90
15916;DHT22;8057;47.830;-3.870;2022-10-22T13:18:17;18.70;99.90
15916;DHT22;8057;47.830;-3.870;2022-10-22T13:22:58;18.70;99.90
15916;DHT22;8057;47.830;-3.870;2022-10-22T13:27:58;18.60;99.90
15916;DHT22;8057;47.830;-3.870;2022-10-22T13:32:30;18.60;99.90
15916;DHT22;8057;47.830;-3.870;2022-10-22T13:37:08;18.60;99.90
15916;DHT22;8057;47.830;-3.870;2022-10-22T13:41:19;18.50;99.90
15916;DHT22;8057;47.830;-3.870;2022-10-22T13:45:41;18.50;99.90
15916;DHT22;8057;47.830;-3.870;2022-10-22T13:50:20;18.50;99.90
15916;DHT22;8057;47.830;-3.870;2022-10-22T13:54:31;18.50;99.90
15916;DHT22;8057;47.830;-3.870;2022-10-22T13:58:48;18.50;99.90
15916;DHT22;8057;47.830;-3.870;2022-10-22T14:03:26;18.50;99.90
15916;DHT22;8057;47.830;-3.870;2022-10-22T14:08:16;18.60;99.90
15916;DHT22;8057;47.830;-3.870;2022-10-22T14:12:44;18.50;99.90
15916;DHT22;8057;47.830;-3.870;2022-10-22T14:17:01;18.50;99.90
15916;DHT22;8057;47.830;-3.870;2022-10-22T14:21:47;18.50;99.90
15916;DHT22;8057;47.830;-3.870;2022-10-22T14:26:01;18.50;99.90
15916;DHT22;8057;47.830;-3.870;2022-10-22T14:30:38;18.50;99.90
15916;DHT22;8057;47.830;-3.870;2022-10-22T14:35:32;18.40;99.90
15916;DHT22;8057;47.830;-3.870;2022-10-22T14:40:06;18.40;99.90
15916;DHT22;8057;47.830;-3.870;2022-10-22T14:44:18;18.30;99.90
15916;DHT22;8057;47.830;-3.870;2022-10-22T14:48:39;18.30;99.90
15916;DHT22;8057;47.830;-3.870;2022-10-22T14:53:22;18.30;99.90
15916;DHT22;8057;47.830;-3.870;2022-10-22T14:57:52;18.30;99.90
15916;DHT22;8057;47.830;-3.870;2022-10-22T15:02:30;18.30;99.90
15916;DHT22;8057;47.830;-3.870;2022-10-22T15:06:51;18.30;99.90
15916;DHT22;8057;47.830;-3.870;2022-10-22T15:11:06;18.20;99.90
15916;DHT22;8057;47.830;-3.870;2022-10-22T15:15:22;18.10;99.90
15916;DHT22;8057;47.830;-3.870;2022-10-22T15:19:53;18.10;99.90
15916;DHT22;8057;47.830;-3.870;2022-10-22T15:24:08;18.00;99.90
15916;DHT22;8057;47.830;-3.870;2022-10-22T15:28:18;17.90;99.90
15916;DHT22;8057;47.830;-3.870;2022-10-22T15:32:53;17.90;99.90
15916;DHT22;8057;47.830;-3.870;2022-10-22T15:37:09;18.00;99.90
15916;DHT22;8057;47.830;-3.870;2022-10-22T15:41:28;18.00;99.90
15916;DHT22;8057;47.830;-3.870;2022-10-22T15:46:17;18.00;99.90
15916;DHT22;8057;47.830;-3.870;2022-10-22T15:51:12;17.90;99.90
15916;DHT22;8057;47.830;-3.870;2022-10-22T15:55:47;17.90;99.90
15916;DHT22;8057;47.830;-3.870;2022-10-22T16:00:21;17.90;99.90
15916;DHT22;8057;47.830;-3.870;2022-10-22T16:04:33;17.90;99.90
15916;DHT22;8057;47.830;-3.870;2022-10-22T16:09:00;17.90;99.90
15916;DHT22;8057;47.830;-3.870;2022-10-22T16:13:15;17.80;99.90
15916;DHT22;8057;47.830;-3.870;2022-10-22T16:17:45;17.80;99.90
15916;DHT22;8057;47.830;-3.870;2022-10-22T16:21:58;17.80;99.90
15916;DHT22;8057;47.830;-3.870;2022-10-22T16:26:13;17.80;99.90
15916;DHT22;8057;47.830;-3.870;2022-10-22T16:30:22;17.80;99.90
15916;DHT22;8057;47.830;-3.870;2022-10-22T16:34:47;17.70;99.90
15916;DHT22;8057;47.830;-3.870;2022-10-22T16:39:14;17.70;99.90
15916;DHT22;8057;47.830;-3.870;2022-10-22T16:43:37;17.70;99.90
15916;DHT22;8057;47.830;-3.870;2022-10-22T16:47:50;17.70;99.90
15916;DHT22;8057;47.830;-3.870;2022-10-22T16:52:00;17.70;99.90
15916;DHT22;8057;47.830;-3.870;2022-10-22T16:56:24;17.70;99.90
15916;DHT22;8057;47.830;-3.870;2022-10-22T17:00:38;17.60;99.90
15916;DHT22;8057;47.830;-3.870;2022-10-22T17:04:49;17.60;99.90
15916;DHT22;8057;47.830;-3.870;2022-10-22T17:09:00;17.60;99.90
15916;DHT22;8057;47.830;-3.870;2022-10-22T17:13:11;17.60;99.90
15916;DHT22;8057;47.830;-3.870;2022-10-22T17:17:42;17.60;99.90
15916;DHT22;8057;47.830;-3.870;2022-10-22T17:22:06;17.60;99.90
15916;DHT22;8057;47.830;-3.870;2022-10-22T17:26:25;17.60;99.90
15916;DHT22;8057;47.830;-3.870;2022-10-22T17:30:39;17.50;99.90
15916;DHT22;8057;47.830;-3.870;2022-10-22T17:34:56;17.60;99.90
15916;DHT22;8057;47.830;-3.870;2022-10-22T17:39:10;17.50;99.90
15916;DHT22;8057;47.830;-3.870;2022-10-22T17:43:40;17.60;99.90
15916;DHT22;8057;47.830;-3.870;2022-10-22T17:48:17;17.60;99.90
15916;DHT22;8057;47.830;-3.870;2022-10-22T17:52:32;17.50;99.90
15916;DHT22;8057;47.830;-3.870;2022-10-22T17:56:44;17.60;99.90
15916;DHT22;8057;47.830;-3.870;2022-10-22T18:01:03;17.60;99.90
15916;DHT22;8057;47.830;-3.870;2022-10-22T18:05:44;17.60;99.90
15916;DHT22;8057;47.830;-3.870;2022-10-22T18:15:24;17.60;99.90
15916;DHT22;8057;47.830;-3.870;2022-10-22T18:20:11;17.60;99.90
15916;DHT22;8057;47.830;-3.870;2022-10-22T18:29:09;17.60;99.90
15916;DHT22;8057;47.830;-3.870;2022-10-22T18:33:48;17.60;99.90
15916;DHT22;8057;47.830;-3.870;2022-10-22T18:38:37;17.60;99.90
15916;DHT22;8057;47.830;-3.870;2022-10-22T18:42:54;17.60;99.90
15916;DHT22;8057;47.830;-3.870;2022-10-22T18:47:39;17.60;99.90
15916;DHT22;8057;47.830;-3.870;2022-10-22T18:56:11;17.60;99.90
15916;DHT22;8057;47.830;-3.870;2022-10-22T19:00:56;17.60;99.90
15916;DHT22;8057;47.830;-3.870;2022-10-22T19:05:51;17.60;99.90
15916;DHT22;8057;47.830;-3.870;2022-10-22T19:10:26;17.60;99.90
15916;DHT22;8057;47.830;-3.870;2022-10-22T19:19:58;17.60;99.90
15916;DHT22;8057;47.830;-3.870;2022-10-22T19:34:09;17.60;99.90
15916;DHT22;8057;47.830;-3.870;2022-10-22T19:38:45;17.50;99.90
15916;DHT22;8057;47.830;-3.870;2022-10-22T19:43:09;17.50;99.90
15916;DHT22;8057;47.830;-3.870;2022-10-22T19:47:37;17.50;99.90
15916;DHT22;8057;47.830;-3.870;2022-10-22T19:52:03;17.50;99.90
15916;DHT22;8057;47.830;-3.870;2022-10-22T19:56:18;17.50;99.90
15916;DHT22;8057;47.830;-3.870;2022-10-22T20:01:07;17.60;99.90
15916;DHT22;8057;47.830;-3.870;2022-10-22T20:05:50;17.60;99.90
15916;DHT22;8057;47.830;-3.870;2022-10-22T20:10:09;17.70;99.90
15916;DHT22;8057;47.830;-3.870;2022-10-22T20:14:32;17.80;99.90
15916;DHT22;8057;47.830;-3.870;2022-10-22T20:18:42;17.80;99.90
15916;DHT22;8057;47.830;-3.870;2022-10-22T20:22:56;17.80;99.90
15916;DHT22;8057;47.830;-3.870;2022-10-22T20:27:29;17.80;99.90
15916;DHT22;8057;47.830;-3.870;2022-10-22T20:31:47;17.90;99.90
15916;DHT22;8057;47.830;-3.870;2022-10-22T20:35:58;17.90;99.90
15916;DHT22;8057;47.830;-3.870;2022-10-22T20:40:14;17.90;99.90
15916;DHT22;8057;47.830;-3.870;2022-10-22T20:44:45;17.90;99.90
15916;DHT22;8057;47.830;-3.870;2022-10-22T20:48:58;17.90;99.90
15916;DHT22;8057;47.830;-3.870;2022-10-22T20:53:27;17.90;99.90
15916;DHT22;8057;47.830;-3.870;2022-10-22T20:57:36;17.90;99.90
15916;DHT22;8057;47.830;-3.870;2022-10-22T21:02:01;17.90;99.90
15916;DHT22;8057;47.830;-3.870;2022-10-22T21:06:29;17.90;99.90
15916;DHT22;8057;47.830;-3.870;2022-10-22T21:10:45;17.90;99.90
15916;DHT22;8057;47.830;-3.870;2022-10-22T21:14:56;17.90;99.90
15916;DHT22;8057;47.830;-3.870;2022-10-22T21:19:42;17.80;99.90
15916;DHT22;8057;47.830;-3.870;2022-10-22T21:23:53;17.80;99.90
15916;DHT22;8057;47.830;-3.870;2022-10-22T21:28:04;17.80;99.90
15916;DHT22;8057;47.830;-3.870;2022-10-22T21:32:26;17.90;99.90
15916;DHT22;8057;47.830;-3.870;2022-10-22T21:36:53;17.90;99.90
15916;DHT22;8057;47.830;-3.870;2022-10-22T21:41:27;17.90;99.90
15916;DHT22;8057;47.830;-3.870;2022-10-22T21:46:03;17.90;99.90
15916;DHT22;8057;47.830;-3.870;2022-10-22T21:50:17;17.90;99.90
15916;DHT22;8057;47.830;-3.870;2022-10-22T21:54:37;17.90;99.90
15916;DHT22;8057;47.830;-3.870;2022-10-22T21:59:01;18.00;99.90
15916;DHT22;8057;47.830;-3.870;2022-10-22T22:03:16;18.00;99.90
15916;DHT22;8057;47.830;-3.870;2022-10-22T22:08:16;18.00;99.90
15916;DHT22;8057;47.830;-3.870;2022-10-22T22:12:27;17.90;99.90
15916;DHT22;8057;47.830;-3.870;2022-10-22T22:16:50;17.90;99.90
15916;DHT22;8057;47.830;-3.870;2022-10-22T22:21:15;17.80;99.90
15916;DHT22;8057;47.830;-3.870;2022-10-22T22:25:45;17.80;99.90
15916;DHT22;8057;47.830;-3.870;2022-10-22T22:29:58;17.80;99.90
15916;DHT22;8057;47.830;-3.870;2022-10-22T22:34:10;17.80;99.90
15916;DHT22;8057;47.830;-3.870;2022-10-22T22:38:43;17.80;99.90
15916;DHT22;8057;47.830;-3.870;2022-10-22T22:42:56;17.80;99.90
15916;DHT22;8057;47.830;-3.870;2022-10-22T22:47:13;17.80;99.90
15916;DHT22;8057;47.830;-3.870;2022-10-22T22:51:29;17.80;99.90
15916;DHT22;8057;47.830;-3.870;2022-10-22T22:55:40;17.90;99.90
15916;DHT22;8057;47.830;-3.870;2022-10-22T22:59:54;17.90;99.90
15916;DHT22;8057;47.830;-3.870;2022-10-22T23:04:05;17.80;99.90
15916;DHT22;8057;47.830;-3.870;2022-10-22T23:08:15;17.70;99.90
15916;DHT22;8057;47.830;-3.870;2022-10-22T23:12:24;17.50;99.90
15916;DHT22;8057;47.830;-3.870;2022-10-22T23:16:42;17.40;99.90
15916;DHT22;8057;47.830;-3.870;2022-10-22T23:20:54;17.30;99.90
15916;DHT22;8057;47.830;-3.870;2022-10-22T23:25:07;17.30;99.90
15916;DHT22;8057;47.830;-3.870;2022-10-22T23:29:29;17.30;99.90
15916;DHT22;8057;47.830;-3.870;2022-10-22T23:33:41;17.40;99.90
15916;DHT22;8057;47.830;-3.870;2022-10-22T23:37:58;17.40;99.90
15916;DHT22;8057;47.830;-3.870;2022-10-22T23:42:09;17.50;99.90
15916;DHT22;8057;47.830;-3.870;2022-10-22T23:46:31;17.50;99.90
15916;DHT22;8057;47.830;-3.870;2022-10-22T23:50:47;17.40;99.90
15916;DHT22;8057;47.830;-3.870;2022-10-22T23:54:57;17.40;99.90
15916;DHT22;8057;47.830;-3.870;2022-10-22T23:59:14;17.40;99.90
